createdAt,value
2022-09-13T00:01:48.599Z,12.60
2022-09-13T00:04:18.762Z,12.50
2022-09-13T00:06:48.903Z,12.50
2022-09-13T00:09:19.073Z,12.50
2022-09-13T00:11:49.180Z,12.50
2022-09-13T00:14:19.389Z,12.50
2022-09-13T00:16:52.114Z,12.40
2022-09-13T00:19:22.543Z,12.40
2022-09-13T00:21:52.733Z,12.40
2022-09-13T00:24:23.015Z,12.40
2022-09-13T00:26:53.123Z,12.40
2022-09-13T00:29:23.443Z,12.40
2022-09-13T00:31:56.633Z,12.30
2022-09-13T00:34:26.929Z,12.30
2022-09-13T00:36:57.055Z,12.30
2022-09-13T00:39:27.232Z,12.30
2022-09-13T00:41:57.402Z,12.30
2022-09-13T00:45:00.468Z,12.30
2022-09-13T00:47:39.013Z,12.30
2022-09-13T00:50:17.187Z,12.30
2022-09-13T00:52:53.551Z,12.20
2022-09-13T00:55:29.377Z,12.20
2022-09-13T00:58:06.765Z,12.20
2022-09-13T01:00:37.163Z,12.20
2022-09-13T01:03:13.723Z,12.20
2022-09-13T01:05:49.531Z,12.10
2022-09-13T01:08:22.571Z,12.10
2022-09-13T01:10:54.725Z,12.10
2022-09-13T01:13:27.657Z,12.10
2022-09-13T01:15:58.048Z,12.10
2022-09-13T01:18:31.064Z,12.10
2022-09-13T01:21:33.575Z,12.10
2022-09-13T01:24:45.425Z,12.10
2022-09-13T01:27:36.096Z,12.10
2022-09-13T01:30:20.392Z,12.10
2022-09-13T01:33:15.717Z,12.00
2022-09-13T01:35:53.917Z,12.00
2022-09-13T01:38:49.042Z,12.00
2022-09-13T01:41:37.517Z,12.00
2022-09-13T01:44:19.077Z,11.90
2022-09-13T01:46:59.981Z,11.90
2022-09-13T01:49:37.594Z,11.90
2022-09-13T01:52:17.965Z,11.80
2022-09-13T01:54:56.873Z,11.80
2022-09-13T01:57:33.650Z,11.80
2022-09-13T02:00:10.311Z,11.80
2022-09-13T02:02:46.625Z,11.80
2022-09-13T02:05:22.089Z,11.70
2022-09-13T02:08:00.817Z,11.70
2022-09-13T02:10:37.009Z,11.70
2022-09-13T02:13:11.307Z,11.70
2022-09-13T02:15:47.296Z,11.70
2022-09-13T02:18:27.017Z,11.70
2022-09-13T02:21:01.592Z,11.70
2022-09-13T02:23:41.158Z,11.70
2022-09-13T02:26:12.817Z,11.70
2022-09-13T02:28:50.161Z,11.70
2022-09-13T02:31:28.385Z,11.70
2022-09-13T02:34:06.236Z,11.60
2022-09-13T02:36:40.871Z,11.60
2022-09-13T02:39:13.743Z,11.60
2022-09-13T02:41:51.101Z,11.60
2022-09-13T02:44:31.175Z,11.60
2022-09-13T02:47:18.968Z,11.60
2022-09-13T02:50:01.743Z,11.60
2022-09-13T02:52:43.368Z,11.60
2022-09-13T02:55:21.982Z,11.50
2022-09-13T02:58:02.528Z,11.60
2022-09-13T03:00:33.151Z,11.50
2022-09-13T03:03:09.846Z,11.40
2022-09-13T03:05:42.730Z,11.50
2022-09-13T03:08:15.872Z,11.50
2022-09-13T03:11:00.692Z,11.50
2022-09-13T03:13:57.997Z,11.50
2022-09-13T03:16:48.555Z,11.50
2022-09-13T03:19:44.969Z,11.50
2022-09-13T03:22:53.417Z,11.50
2022-09-13T03:25:37.535Z,11.50
2022-09-13T03:28:21.356Z,11.50
2022-09-13T03:30:58.157Z,11.50
2022-09-13T03:33:34.779Z,11.50
2022-09-13T03:36:12.461Z,11.50
2022-09-13T03:38:56.798Z,11.50
2022-09-13T03:41:34.097Z,11.50
2022-09-13T03:44:09.065Z,11.50
2022-09-13T03:46:43.505Z,11.50
2022-09-13T03:49:18.365Z,11.50
2022-09-13T03:51:52.994Z,11.50
2022-09-13T03:54:27.204Z,11.60
2022-09-13T03:57:15.360Z,11.50
2022-09-13T03:59:49.995Z,11.60
2022-09-13T04:02:21.281Z,11.50
2022-09-13T04:04:51.472Z,11.50
2022-09-13T04:07:23.788Z,11.50
2022-09-13T04:09:56.571Z,11.50
2022-09-13T04:12:27.234Z,11.60
2022-09-13T04:14:57.377Z,11.60
2022-09-13T04:17:27.563Z,11.60
2022-09-13T04:19:57.753Z,11.70
2022-09-13T04:22:27.989Z,11.70
2022-09-13T04:25:02.631Z,11.80
2022-09-13T04:27:33.039Z,11.80
2022-09-13T04:30:03.203Z,11.90
2022-09-13T04:32:33.904Z,11.90
2022-09-13T04:35:04.026Z,11.90
2022-09-13T04:37:34.160Z,11.90
2022-09-13T04:40:08.547Z,11.90
2022-09-13T04:42:38.963Z,12.00
2022-09-13T04:45:11.000Z,12.00
2022-09-13T04:47:41.137Z,12.00
2022-09-13T04:50:12.737Z,12.10
2022-09-13T04:52:42.881Z,12.00
2022-09-13T04:55:15.990Z,12.10
2022-09-13T04:57:46.131Z,12.10
2022-09-13T05:00:17.327Z,12.10
2022-09-13T05:02:47.450Z,12.10
2022-09-13T05:05:17.890Z,12.20
2022-09-13T05:07:48.498Z,12.20
2022-09-13T05:10:21.819Z,12.20
2022-09-13T05:12:51.959Z,12.20
2022-09-13T05:15:22.070Z,12.20
2022-09-13T05:17:54.461Z,12.30
2022-09-13T05:20:24.695Z,12.30
2022-09-13T05:22:54.764Z,12.40
2022-09-13T05:25:27.695Z,12.40
2022-09-13T05:27:58.422Z,12.40
2022-09-13T05:30:29.062Z,12.40
2022-09-13T05:32:59.201Z,12.50
2022-09-13T05:35:29.401Z,12.50
2022-09-13T05:37:59.614Z,12.50
2022-09-13T05:40:32.539Z,12.50
2022-09-13T05:43:02.737Z,12.60
2022-09-13T05:45:32.963Z,12.60
2022-09-13T05:48:03.111Z,12.60
2022-09-13T05:50:57.272Z,12.60
2022-09-13T05:53:23.320Z,12.60
2022-09-13T05:55:56.051Z,12.70
2022-09-13T05:58:26.474Z,12.70
2022-09-13T06:00:57.834Z,12.70
2022-09-13T06:03:28.638Z,12.70
2022-09-13T06:05:59.843Z,12.70
2022-09-13T06:08:32.235Z,12.70
2022-09-13T06:11:06.767Z,12.80
2022-09-13T06:13:37.800Z,12.80
2022-09-13T06:16:11.134Z,12.80
2022-09-13T06:18:42.338Z,12.80
2022-09-13T06:21:18.111Z,12.90
2022-09-13T06:23:48.766Z,12.80
2022-09-13T06:26:23.720Z,12.80
2022-09-13T06:28:57.472Z,12.90
2022-09-13T06:31:30.588Z,12.90
2022-09-13T06:34:03.474Z,12.90
2022-09-13T06:36:34.171Z,12.90
2022-09-13T06:39:06.579Z,12.90
2022-09-13T06:41:40.137Z,12.90
2022-09-13T06:44:10.332Z,12.90
2022-09-13T06:46:40.475Z,12.90
2022-09-13T06:49:12.550Z,12.90
2022-09-13T06:51:43.033Z,12.90
2022-09-13T06:54:13.125Z,12.90
2022-09-13T06:56:46.261Z,12.90
2022-09-13T06:59:16.341Z,13.00
2022-09-13T07:01:47.856Z,13.00
2022-09-13T07:04:20.397Z,13.10
2022-09-13T07:06:52.726Z,13.10
2022-09-13T07:09:25.122Z,13.10
2022-09-13T07:11:59.194Z,13.10
2022-09-13T07:14:31.556Z,13.20
2022-09-13T07:17:01.725Z,13.20
2022-09-13T07:19:32.609Z,13.20
2022-09-13T07:22:03.267Z,13.30
2022-09-13T07:24:33.478Z,13.40
2022-09-13T07:27:06.250Z,13.40
2022-09-13T07:29:36.455Z,13.40
2022-09-13T07:32:06.649Z,13.50
2022-09-13T07:34:36.903Z,13.50
2022-09-13T07:37:07.157Z,13.50
2022-09-13T07:39:37.466Z,13.60
2022-09-13T07:42:10.444Z,13.60
2022-09-13T07:44:40.642Z,13.60
2022-09-13T07:47:10.781Z,13.70
2022-09-13T07:49:40.941Z,13.70
2022-09-13T07:52:11.096Z,13.70
2022-09-13T07:54:41.245Z,13.70
2022-09-13T07:57:13.962Z,13.80
2022-09-13T07:59:44.127Z,13.80
2022-09-13T08:02:14.485Z,13.80
2022-09-13T08:04:44.742Z,13.90
2022-09-13T08:07:14.985Z,13.80
2022-09-13T08:09:45.181Z,13.90
2022-09-13T08:12:17.944Z,13.90
2022-09-13T08:14:48.243Z,14.00
2022-09-13T08:17:18.374Z,14.00
2022-09-13T08:19:48.596Z,14.00
2022-09-13T08:22:18.749Z,14.00
2022-09-13T08:24:48.846Z,14.10
2022-09-13T08:27:21.773Z,14.20
2022-09-13T08:29:51.939Z,14.30
2022-09-13T08:32:22.013Z,14.40
2022-09-13T08:34:53.148Z,14.50
2022-09-13T08:37:23.393Z,14.60
2022-09-13T08:39:53.633Z,14.70
2022-09-13T08:42:47.073Z,14.80
2022-09-13T08:45:17.837Z,14.90
2022-09-13T08:47:54.736Z,14.90
2022-09-13T08:50:30.517Z,15.00
2022-09-13T08:53:11.656Z,15.10
2022-09-13T08:55:54.540Z,15.10
2022-09-13T08:59:02.080Z,15.10
2022-09-13T09:01:48.591Z,15.10
2022-09-13T09:04:39.364Z,15.20
2022-09-13T09:07:16.601Z,15.30
2022-09-13T09:09:53.073Z,15.40
2022-09-13T09:12:32.337Z,15.40
2022-09-13T09:15:13.092Z,15.50
2022-09-13T09:17:53.367Z,15.60
2022-09-13T09:20:32.967Z,15.70
2022-09-13T09:23:07.858Z,15.70
2022-09-13T09:25:38.542Z,15.70
2022-09-13T09:28:16.738Z,15.70
2022-09-13T09:31:02.308Z,15.70
2022-09-13T09:33:55.177Z,15.80
2022-09-13T09:36:38.924Z,16.00
2022-09-13T09:39:13.050Z,16.10
2022-09-13T09:41:44.225Z,16.20
2022-09-13T09:44:22.103Z,16.40
2022-09-13T09:47:00.742Z,16.70
2022-09-13T09:49:49.114Z,16.80
2022-09-13T09:52:26.767Z,16.70
2022-09-13T09:54:59.984Z,16.70
2022-09-13T09:57:57.399Z,16.80
2022-09-13T10:00:30.417Z,17.00
2022-09-13T10:03:07.663Z,17.20
2022-09-13T10:05:38.729Z,17.60
2022-09-13T10:08:11.745Z,17.70
2022-09-13T10:10:46.336Z,17.70
2022-09-13T10:13:19.851Z,17.80
2022-09-13T10:15:58.317Z,18.00
2022-09-13T10:18:44.085Z,17.90
2022-09-13T10:21:27.118Z,17.80
2022-09-13T10:24:23.321Z,18.00
2022-09-13T10:26:53.639Z,18.10
2022-09-13T10:29:24.177Z,18.20
2022-09-13T10:31:58.120Z,18.20
2022-09-13T10:34:36.281Z,18.20
2022-09-13T10:37:14.936Z,18.30
2022-09-13T10:39:58.457Z,18.30
2022-09-13T10:42:31.642Z,18.40
2022-09-13T10:45:04.569Z,18.30
2022-09-13T10:47:37.751Z,18.50
2022-09-13T10:50:26.625Z,18.60
2022-09-13T10:52:58.782Z,18.60
2022-09-13T10:55:36.065Z,18.60
2022-09-13T10:58:21.721Z,18.60
2022-09-13T11:01:29.527Z,18.70
2022-09-13T11:04:29.816Z,18.70
2022-09-13T11:07:16.445Z,18.70
2022-09-13T11:09:55.917Z,18.90
2022-09-13T11:12:34.506Z,19.00
2022-09-13T11:15:19.035Z,19.00
2022-09-13T11:18:31.589Z,18.80
2022-09-13T11:21:15.454Z,18.80
2022-09-13T11:24:10.693Z,18.60
2022-09-13T11:26:52.027Z,18.60
2022-09-13T11:29:50.846Z,18.60
2022-09-13T11:32:34.805Z,18.60
2022-09-13T11:35:30.008Z,18.70
2022-09-13T11:38:09.596Z,18.70
2022-09-13T11:40:50.941Z,18.60
2022-09-13T11:43:39.710Z,18.60
2022-09-13T11:46:19.605Z,18.50
2022-09-13T11:49:21.353Z,18.50
2022-09-13T11:52:01.748Z,18.60
2022-09-13T11:54:51.124Z,18.60
2022-09-13T11:57:30.227Z,18.60
2022-09-13T12:00:07.905Z,18.50
2022-09-13T12:02:47.473Z,18.50
2022-09-13T12:05:23.875Z,18.50
2022-09-13T12:08:00.714Z,18.40
2022-09-13T12:10:35.582Z,18.40
2022-09-13T12:13:15.259Z,18.40
2022-09-13T12:15:47.839Z,18.30
2022-09-13T12:18:23.312Z,18.30
2022-09-13T12:20:57.357Z,18.30
2022-09-13T12:23:34.737Z,18.20
2022-09-13T12:26:10.631Z,18.30
2022-09-13T12:28:49.567Z,18.20
2022-09-13T12:31:25.414Z,18.20
2022-09-13T12:33:56.557Z,18.20
2022-09-13T12:37:02.635Z,18.20
2022-09-13T12:40:15.412Z,18.20
2022-09-13T12:43:18.705Z,18.20
2022-09-13T12:46:24.271Z,18.20
2022-09-13T12:49:04.845Z,18.20
2022-09-13T12:52:05.841Z,18.20
2022-09-13T12:54:58.117Z,18.20
2022-09-13T12:57:42.356Z,18.20
2022-09-13T13:00:24.869Z,18.20
2022-09-13T13:03:12.083Z,18.10
2022-09-13T13:05:47.759Z,18.10
2022-09-13T13:08:32.887Z,18.00
2022-09-13T13:11:07.267Z,18.10
2022-09-13T13:13:42.681Z,18.10
2022-09-13T13:16:33.159Z,18.10
2022-09-13T13:19:07.556Z,18.10
2022-09-13T13:21:41.820Z,18.10
2022-09-13T13:24:44.388Z,18.10
2022-09-13T13:27:47.578Z,18.10
2022-09-13T13:30:56.520Z,18.00
2022-09-13T13:33:32.114Z,18.10
2022-09-13T13:36:24.988Z,18.00
2022-09-13T13:38:56.077Z,18.00
2022-09-13T13:41:45.205Z,18.00
2022-09-13T13:44:59.625Z,18.00
2022-09-13T13:48:15.954Z,17.90
2022-09-13T13:51:23.857Z,17.90
2022-09-13T13:54:05.896Z,18.00
2022-09-13T13:56:49.314Z,17.90
2022-09-13T13:59:30.845Z,18.00
2022-09-13T14:02:02.811Z,17.90
2022-09-13T14:05:03.773Z,18.00
2022-09-13T14:08:05.571Z,18.00
2022-09-13T14:10:48.199Z,18.00
2022-09-13T14:13:46.869Z,18.00
2022-09-13T14:16:36.732Z,18.00
2022-09-13T14:19:27.044Z,18.10
2022-09-13T14:22:17.485Z,18.20
2022-09-13T14:24:51.712Z,18.30
2022-09-13T14:27:25.391Z,18.40
2022-09-13T14:29:58.661Z,18.40
2022-09-13T14:32:38.492Z,18.40
2022-09-13T14:35:29.048Z,18.40
2022-09-13T14:38:00.635Z,18.60
2022-09-13T14:40:33.633Z,18.80
2022-09-13T14:43:03.901Z,18.80
2022-09-13T14:45:39.010Z,18.70
2022-09-13T14:48:15.813Z,18.70
2022-09-13T14:50:54.256Z,18.70
2022-09-13T14:53:28.478Z,18.70
2022-09-13T14:56:06.966Z,18.70
2022-09-13T14:58:49.459Z,18.70
2022-09-13T15:01:22.467Z,18.70
2022-09-13T15:03:52.856Z,18.60
2022-09-13T15:06:27.244Z,18.60
2022-09-13T15:09:01.273Z,18.60
2022-09-13T15:11:39.833Z,18.60
2022-09-13T15:14:27.984Z,18.60
2022-09-13T15:17:03.032Z,18.70
2022-09-13T15:19:47.081Z,18.70
2022-09-13T15:22:27.426Z,18.70
2022-09-13T15:25:00.544Z,18.70
2022-09-13T15:27:42.647Z,18.80
2022-09-13T15:30:27.667Z,18.90
2022-09-13T15:33:22.804Z,19.00
2022-09-13T15:35:53.749Z,19.10
2022-09-13T15:38:30.929Z,19.10
2022-09-13T15:41:05.520Z,19.20
2022-09-13T15:43:38.269Z,19.30
2022-09-13T15:46:09.310Z,19.30
2022-09-13T15:48:39.796Z,19.30
2022-09-13T15:51:13.676Z,19.20
2022-09-13T15:53:47.298Z,19.10
2022-09-13T15:56:20.761Z,19.10
2022-09-13T15:58:53.541Z,19.10
2022-09-13T16:01:25.372Z,19.20
2022-09-13T16:03:55.662Z,19.30
2022-09-13T16:06:27.082Z,19.40
2022-09-13T16:08:57.426Z,19.40
2022-09-13T16:11:27.594Z,19.40
2022-09-13T16:14:00.408Z,19.30
2022-09-13T16:16:31.147Z,19.20
2022-09-13T16:19:01.363Z,19.10
2022-09-13T16:21:31.981Z,19.00
2022-09-13T16:24:02.085Z,19.00
2022-09-13T16:26:34.462Z,19.00
2022-09-13T16:29:07.541Z,18.90
2022-09-13T16:31:37.760Z,18.90
2022-09-13T16:34:08.501Z,18.80
2022-09-13T16:36:38.679Z,18.80
2022-09-13T16:39:08.808Z,18.70
2022-09-13T16:41:39.085Z,18.70
2022-09-13T16:44:11.821Z,18.60
2022-09-13T16:46:42.063Z,18.60
2022-09-13T16:49:13.023Z,18.50
2022-09-13T16:51:43.184Z,18.50
2022-09-13T16:54:13.385Z,18.50
2022-09-13T16:56:43.804Z,18.50
2022-09-13T16:59:16.573Z,18.40
2022-09-13T17:01:46.832Z,18.40
2022-09-13T17:04:19.882Z,18.30
2022-09-13T17:06:50.016Z,18.30
2022-09-13T17:09:22.572Z,18.30
2022-09-13T17:11:52.810Z,18.20
2022-09-13T17:14:25.785Z,18.20
2022-09-13T17:16:58.489Z,18.20
2022-09-13T17:19:33.890Z,18.10
2022-09-13T17:22:08.275Z,18.10
2022-09-13T17:24:38.653Z,18.10
2022-09-13T17:27:09.092Z,18.10
2022-09-13T17:29:41.910Z,18.00
2022-09-13T17:32:11.988Z,18.00
2022-09-13T17:34:42.134Z,17.90
2022-09-13T17:37:12.397Z,17.90
2022-09-13T17:39:42.689Z,17.80
2022-09-13T17:42:12.871Z,17.80
2022-09-13T17:44:45.519Z,17.70
2022-09-13T17:47:15.611Z,17.70
2022-09-13T17:49:46.777Z,17.60
2022-09-13T17:52:17.144Z,17.50
2022-09-13T17:54:47.340Z,17.50
2022-09-13T17:57:17.544Z,17.50
2022-09-13T17:59:50.834Z,17.40
2022-09-13T18:02:22.016Z,17.40
2022-09-13T18:04:53.620Z,17.40
2022-09-13T18:07:23.714Z,17.30
2022-09-13T18:09:54.022Z,17.40
2022-09-13T18:12:24.331Z,17.40
2022-09-13T18:14:57.493Z,17.40
2022-09-13T18:17:27.745Z,17.30
2022-09-13T18:19:57.897Z,17.30
2022-09-13T18:22:28.061Z,17.30
2022-09-13T18:24:58.155Z,17.30
2022-09-13T18:27:28.314Z,17.20
2022-09-13T18:30:01.407Z,17.30
2022-09-13T18:32:31.526Z,17.30
2022-09-13T18:35:01.636Z,17.30
2022-09-13T18:37:33.843Z,17.20
2022-09-13T18:40:06.285Z,17.10
2022-09-13T18:42:36.483Z,17.10
2022-09-13T18:45:11.599Z,17.10
2022-09-13T18:47:41.785Z,17.00
2022-09-13T18:50:17.972Z,17.00
2022-09-13T18:52:49.880Z,17.00
2022-09-13T18:55:19.942Z,17.00
2022-09-13T18:57:50.129Z,17.00
2022-09-13T19:00:24.371Z,17.00
2022-09-13T19:03:11.373Z,16.90
2022-09-13T19:05:43.148Z,16.90
2022-09-13T19:08:14.306Z,16.80
2022-09-13T19:10:44.571Z,16.80
2022-09-13T19:13:14.758Z,16.80
2022-09-13T19:15:47.534Z,16.80
2022-09-13T19:18:17.901Z,16.70
2022-09-13T19:20:48.047Z,16.70
2022-09-13T19:23:18.314Z,16.70
2022-09-13T19:25:48.821Z,16.70
2022-09-13T19:28:18.999Z,16.70
2022-09-13T19:30:52.546Z,16.70
2022-09-13T19:33:22.868Z,16.70
2022-09-13T19:35:53.059Z,16.70
2022-09-13T19:38:23.399Z,16.70
2022-09-13T19:40:59.848Z,16.60
2022-09-13T19:43:34.588Z,16.60
2022-09-13T19:46:09.750Z,16.60
2022-09-13T19:48:45.051Z,16.50
2022-09-13T19:51:17.901Z,16.50
2022-09-13T19:53:57.327Z,16.40
2022-09-13T19:56:29.863Z,16.40
2022-09-13T19:59:01.340Z,16.30
2022-09-13T20:01:36.812Z,16.30
2022-09-13T20:04:10.085Z,16.20
2022-09-13T20:06:42.499Z,16.10
2022-09-13T20:09:14.056Z,16.10
2022-09-13T20:11:45.838Z,16.00
2022-09-13T20:14:18.006Z,16.00
2022-09-13T20:16:51.412Z,16.00
2022-09-13T20:19:40.573Z,15.90
2022-09-13T20:22:12.332Z,15.90
2022-09-13T20:24:42.813Z,15.80
2022-09-13T20:27:13.660Z,15.80
2022-09-13T20:29:43.948Z,15.80
2022-09-13T20:32:16.806Z,15.80
2022-09-13T20:34:48.089Z,15.70
2022-09-13T20:37:18.254Z,15.70
2022-09-13T20:39:49.009Z,15.60
2022-09-13T20:42:19.468Z,15.60
2022-09-13T20:44:49.674Z,15.50
2022-09-13T20:47:22.402Z,15.50
2022-09-13T20:49:52.688Z,15.30
2022-09-13T20:52:22.864Z,15.20
2022-09-13T20:54:53.209Z,15.20
2022-09-13T20:57:23.513Z,15.10
2022-09-13T20:59:54.402Z,15.10
2022-09-13T21:02:27.216Z,15.20
2022-09-13T21:04:57.471Z,15.10
2022-09-13T21:07:39.970Z,15.10
2022-09-13T21:10:11.337Z,15.00
2022-09-13T21:12:41.449Z,14.90
2022-09-13T21:15:14.395Z,14.90
2022-09-13T21:17:47.718Z,14.80
2022-09-13T21:20:18.455Z,14.80
2022-09-13T21:22:48.487Z,14.80
2022-09-13T21:25:18.785Z,14.70
2022-09-13T21:27:49.017Z,14.70
2022-09-13T21:30:19.283Z,14.70
2022-09-13T21:32:52.055Z,14.70
2022-09-13T21:35:22.169Z,14.70
2022-09-13T21:37:52.897Z,14.80
2022-09-13T21:40:23.221Z,14.80
2022-09-13T21:42:53.377Z,14.80
2022-09-13T21:45:24.088Z,14.80
2022-09-13T21:47:56.996Z,14.80
2022-09-13T21:50:27.279Z,14.80
2022-09-13T21:52:57.342Z,14.80
2022-09-13T21:55:27.587Z,14.80
2022-09-13T21:57:57.739Z,14.80
2022-09-13T22:00:27.926Z,14.70
2022-09-13T22:03:00.715Z,14.80
2022-09-13T22:05:31.204Z,14.70
2022-09-13T22:08:01.328Z,14.70
2022-09-13T22:10:31.548Z,14.70
2022-09-13T22:13:01.612Z,14.60
2022-09-13T22:15:31.666Z,14.60
2022-09-13T22:18:04.467Z,14.60
2022-09-13T22:20:34.624Z,14.60
2022-09-13T22:23:04.701Z,14.60
2022-09-13T22:25:34.817Z,14.50
2022-09-13T22:28:05.786Z,14.50
2022-09-13T22:30:38.175Z,14.40
2022-09-13T22:33:10.884Z,14.40
2022-09-13T22:35:41.087Z,14.30
2022-09-13T22:38:11.900Z,14.30
2022-09-13T22:40:42.073Z,14.20
2022-09-13T22:43:12.201Z,14.20
2022-09-13T22:45:42.365Z,14.10
2022-09-13T22:48:18.015Z,14.00
2022-09-13T22:50:53.687Z,14.00
2022-09-13T22:53:25.249Z,14.00
2022-09-13T22:55:55.957Z,14.00
2022-09-13T22:58:26.108Z,14.00
2022-09-13T23:01:06.314Z,14.00
2022-09-13T23:03:40.840Z,13.90
2022-09-13T23:06:12.049Z,14.00
2022-09-13T23:08:43.221Z,14.00
2022-09-13T23:11:16.172Z,13.90
2022-09-13T23:13:47.925Z,13.90
2022-09-13T23:16:22.968Z,13.90
2022-09-13T23:18:56.956Z,13.90
2022-09-13T23:21:29.397Z,13.90
2022-09-13T23:24:00.568Z,13.80
2022-09-13T23:26:31.412Z,13.80
2022-09-13T23:29:04.552Z,13.70
2022-09-13T23:31:39.047Z,13.70
2022-09-13T23:34:14.472Z,13.60
2022-09-13T23:36:46.751Z,13.60
2022-09-13T23:39:19.896Z,13.60
2022-09-13T23:41:51.995Z,13.60
2022-09-13T23:44:23.177Z,13.50
2022-09-13T23:46:53.648Z,13.50
2022-09-13T23:49:26.354Z,13.50
2022-09-13T23:51:56.484Z,13.50
2022-09-13T23:54:26.710Z,13.50
2022-09-13T23:56:56.889Z,13.50
2022-09-13T23:59:27.161Z,13.40
